sensor_id;sensor_type;location;lat;lon;timestamp;P1;durP1;ratioP1;P2;durP2;ratioP2
73959;SDS011;62316;48.920;2.342;2024-02-16T00:02:05;8.33;;;8.33;;
73959;SDS011;62316;48.920;2.342;2024-02-16T00:04:30;6.00;;;6.00;;
73959;SDS011;62316;48.920;2.342;2024-02-16T00:06:55;10.67;;;9.67;;
73959;SDS011;62316;48.920;2.342;2024-02-16T00:09:21;7.00;;;5.67;;
73959;SDS011;62316;48.920;2.342;2024-02-16T00:11:46;9.33;;;6.33;;
73959;SDS011;62316;48.920;2.342;2024-02-16T00:14:13;8.67;;;7.67;;
73959;SDS011;62316;48.920;2.342;2024-02-16T00:16:38;6.33;;;5.33;;
73959;SDS011;62316;48.920;2.342;2024-02-16T00:19:03;7.33;;;7.33;;
73959;SDS011;62316;48.920;2.342;2024-02-16T00:21:29;8.33;;;7.00;;
73959;SDS011;62316;48.920;2.342;2024-02-16T00:23:54;11.33;;;8.00;;
73959;SDS011;62316;48.920;2.342;2024-02-16T00:26:20;7.67;;;5.67;;
73959;SDS011;62316;48.920;2.342;2024-02-16T00:28:46;7.33;;;7.00;;
73959;SDS011;62316;48.920;2.342;2024-02-16T00:31:11;7.33;;;6.67;;
73959;SDS011;62316;48.920;2.342;2024-02-16T00:33:36;6.67;;;6.67;;
73959;SDS011;62316;48.920;2.342;2024-02-16T00:36:01;8.33;;;7.33;;
73959;SDS011;62316;48.920;2.342;2024-02-16T00:38:27;5.67;;;5.67;;
73959;SDS011;62316;48.920;2.342;2024-02-16T00:40:52;9.00;;;7.00;;
73959;SDS011;62316;48.920;2.342;2024-02-16T00:43:17;9.00;;;6.67;;
73959;SDS011;62316;48.920;2.342;2024-02-16T00:45:43;6.33;;;5.00;;
73959;SDS011;62316;48.920;2.342;2024-02-16T00:48:09;13.67;;;11.33;;
73959;SDS011;62316;48.920;2.342;2024-02-16T00:50:35;5.67;;;4.67;;
73959;SDS011;62316;48.920;2.342;2024-02-16T00:53:00;6.00;;;5.00;;
73959;SDS011;62316;48.920;2.342;2024-02-16T00:55:25;7.00;;;6.00;;
73959;SDS011;62316;48.920;2.342;2024-02-16T00:57:51;5.67;;;5.67;;
73959;SDS011;62316;48.920;2.342;2024-02-16T01:00:16;3.33;;;3.33;;
73959;SDS011;62316;48.920;2.342;2024-02-16T01:02:48;5.00;;;4.33;;
73959;SDS011;62316;48.920;2.342;2024-02-16T01:05:14;5.00;;;5.00;;
73959;SDS011;62316;48.920;2.342;2024-02-16T01:07:42;5.00;;;4.33;;
73959;SDS011;62316;48.920;2.342;2024-02-16T01:10:07;5.33;;;5.33;;
73959;SDS011;62316;48.920;2.342;2024-02-16T01:12:33;4.67;;;4.00;;
73959;SDS011;62316;48.920;2.342;2024-02-16T01:14:58;7.00;;;6.00;;
73959;SDS011;62316;48.920;2.342;2024-02-16T01:17:24;6.00;;;5.00;;
73959;SDS011;62316;48.920;2.342;2024-02-16T01:19:49;5.00;;;5.00;;
73959;SDS011;62316;48.920;2.342;2024-02-16T01:22:14;4.67;;;4.00;;
73959;SDS011;62316;48.920;2.342;2024-02-16T01:24:39;5.33;;;5.00;;
73959;SDS011;62316;48.920;2.342;2024-02-16T01:27:05;7.67;;;4.00;;
73959;SDS011;62316;48.920;2.342;2024-02-16T01:29:30;5.00;;;5.00;;
73959;SDS011;62316;48.920;2.342;2024-02-16T01:31:57;5.00;;;5.00;;
73959;SDS011;62316;48.920;2.342;2024-02-16T01:34:22;9.00;;;6.33;;
73959;SDS011;62316;48.920;2.342;2024-02-16T01:36:47;5.00;;;4.00;;
73959;SDS011;62316;48.920;2.342;2024-02-16T01:39:13;5.00;;;4.00;;
73959;SDS011;62316;48.920;2.342;2024-02-16T01:41:38;6.67;;;5.00;;
73959;SDS011;62316;48.920;2.342;2024-02-16T01:44:04;6.33;;;5.33;;
73959;SDS011;62316;48.920;2.342;2024-02-16T01:46:29;5.00;;;5.00;;
73959;SDS011;62316;48.920;2.342;2024-02-16T01:48:54;7.00;;;6.00;;
73959;SDS011;62316;48.920;2.342;2024-02-16T01:51:21;5.67;;;5.67;;
73959;SDS011;62316;48.920;2.342;2024-02-16T01:53:47;4.33;;;4.33;;
73959;SDS011;62316;48.920;2.342;2024-02-16T01:56:13;5.00;;;4.00;;
73959;SDS011;62316;48.920;2.342;2024-02-16T01:58:38;5.00;;;4.00;;
73959;SDS011;62316;48.920;2.342;2024-02-16T02:01:03;6.67;;;5.00;;
73959;SDS011;62316;48.920;2.342;2024-02-16T02:03:29;7.67;;;4.33;;
73959;SDS011;62316;48.920;2.342;2024-02-16T02:05:54;8.00;;;7.00;;
73959;SDS011;62316;48.920;2.342;2024-02-16T02:08:21;7.67;;;7.67;;
73959;SDS011;62316;48.920;2.342;2024-02-16T02:10:46;4.67;;;4.67;;
73959;SDS011;62316;48.920;2.342;2024-02-16T02:13:11;5.00;;;5.00;;
73959;SDS011;62316;48.920;2.342;2024-02-16T02:15:36;7.00;;;6.00;;
73959;SDS011;62316;48.920;2.342;2024-02-16T02:18:02;6.00;;;6.00;;
73959;SDS011;62316;48.920;2.342;2024-02-16T02:20:27;6.33;;;6.33;;
73959;SDS011;62316;48.920;2.342;2024-02-16T02:22:52;7.50;;;6.50;;
73959;SDS011;62316;48.920;2.342;2024-02-16T02:25:18;7.00;;;6.00;;
73959;SDS011;62316;48.920;2.342;2024-02-16T02:27:43;5.00;;;5.00;;
73959;SDS011;62316;48.920;2.342;2024-02-16T02:30:08;6.67;;;6.67;;
73959;SDS011;62316;48.920;2.342;2024-02-16T02:32:34;5.67;;;4.33;;
73959;SDS011;62316;48.920;2.342;2024-02-16T02:34:59;6.67;;;6.00;;
73959;SDS011;62316;48.920;2.342;2024-02-16T02:37:24;4.00;;;4.00;;
73959;SDS011;62316;48.920;2.342;2024-02-16T02:39:50;6.00;;;6.00;;
73959;SDS011;62316;48.920;2.342;2024-02-16T02:42:15;7.67;;;5.33;;
73959;SDS011;62316;48.920;2.342;2024-02-16T02:44:41;4.00;;;4.00;;
73959;SDS011;62316;48.920;2.342;2024-02-16T02:47:07;4.67;;;4.00;;
73959;SDS011;62316;48.920;2.342;2024-02-16T02:49:32;5.00;;;4.00;;
73959;SDS011;62316;48.920;2.342;2024-02-16T02:51:59;9.00;;;6.00;;
73959;SDS011;62316;48.920;2.342;2024-02-16T02:54:25;9.00;;;6.67;;
73959;SDS011;62316;48.920;2.342;2024-02-16T02:56:50;7.33;;;5.00;;
73959;SDS011;62316;48.920;2.342;2024-02-16T02:59:15;8.00;;;4.33;;
73959;SDS011;62316;48.920;2.342;2024-02-16T03:01:40;9.67;;;7.67;;
73959;SDS011;62316;48.920;2.342;2024-02-16T03:04:06;5.67;;;4.67;;
73959;SDS011;62316;48.920;2.342;2024-02-16T03:06:31;4.00;;;3.00;;
73959;SDS011;62316;48.920;2.342;2024-02-16T03:08:56;8.33;;;7.00;;
73959;SDS011;62316;48.920;2.342;2024-02-16T03:11:21;7.67;;;6.67;;
73959;SDS011;62316;48.920;2.342;2024-02-16T03:13:46;4.00;;;4.00;;
73959;SDS011;62316;48.920;2.342;2024-02-16T03:16:12;5.67;;;5.67;;
73959;SDS011;62316;48.920;2.342;2024-02-16T03:18:38;5.67;;;5.67;;
73959;SDS011;62316;48.920;2.342;2024-02-16T03:21:04;5.00;;;5.00;;
73959;SDS011;62316;48.920;2.342;2024-02-16T03:23:29;6.33;;;6.33;;
73959;SDS011;62316;48.920;2.342;2024-02-16T03:25:55;7.67;;;5.67;;
73959;SDS011;62316;48.920;2.342;2024-02-16T03:28:20;7.00;;;6.00;;
73959;SDS011;62316;48.920;2.342;2024-02-16T03:30:46;6.00;;;6.00;;
73959;SDS011;62316;48.920;2.342;2024-02-16T03:33:11;5.67;;;5.67;;
73959;SDS011;62316;48.920;2.342;2024-02-16T03:35:37;6.00;;;6.00;;
73959;SDS011;62316;48.920;2.342;2024-02-16T03:38:02;5.00;;;4.00;;
73959;SDS011;62316;48.920;2.342;2024-02-16T03:40:28;6.00;;;5.00;;
73959;SDS011;62316;48.920;2.342;2024-02-16T03:42:53;6.67;;;6.67;;
73959;SDS011;62316;48.920;2.342;2024-02-16T03:45:19;5.00;;;5.00;;
73959;SDS011;62316;48.920;2.342;2024-02-16T03:47:44;7.33;;;6.00;;
73959;SDS011;62316;48.920;2.342;2024-02-16T03:50:10;8.00;;;7.00;;
73959;SDS011;62316;48.920;2.342;2024-02-16T03:52:36;9.00;;;6.67;;
73959;SDS011;62316;48.920;2.342;2024-02-16T03:55:01;3.00;;;3.00;;
73959;SDS011;62316;48.920;2.342;2024-02-16T03:57:32;9.00;;;6.67;;
73959;SDS011;62316;48.920;2.342;2024-02-16T03:59:58;9.00;;;6.67;;
73959;SDS011;62316;48.920;2.342;2024-02-16T04:02:24;5.00;;;5.00;;
73959;SDS011;62316;48.920;2.342;2024-02-16T04:04:49;6.00;;;5.00;;
73959;SDS011;62316;48.920;2.342;2024-02-16T04:07:15;6.67;;;5.67;;
73959;SDS011;62316;48.920;2.342;2024-02-16T04:09:40;5.00;;;5.00;;
73959;SDS011;62316;48.920;2.342;2024-02-16T04:12:06;7.67;;;6.00;;
73959;SDS011;62316;48.920;2.342;2024-02-16T04:14:31;7.00;;;3.67;;
73959;SDS011;62316;48.920;2.342;2024-02-16T04:16:57;7.33;;;6.00;;
73959;SDS011;62316;48.920;2.342;2024-02-16T04:19:25;5.33;;;5.33;;
73959;SDS011;62316;48.920;2.342;2024-02-16T04:21:50;5.67;;;5.00;;
73959;SDS011;62316;48.920;2.342;2024-02-16T04:24:16;6.33;;;5.00;;
73959;SDS011;62316;48.920;2.342;2024-02-16T04:26:41;4.67;;;3.67;;
73959;SDS011;62316;48.920;2.342;2024-02-16T04:29:07;6.00;;;6.00;;
73959;SDS011;62316;48.920;2.342;2024-02-16T04:31:32;7.00;;;6.00;;
73959;SDS011;62316;48.920;2.342;2024-02-16T04:33:57;6.33;;;6.33;;
73959;SDS011;62316;48.920;2.342;2024-02-16T04:36:22;6.00;;;5.00;;
73959;SDS011;62316;48.920;2.342;2024-02-16T04:38:48;6.00;;;6.00;;
73959;SDS011;62316;48.920;2.342;2024-02-16T04:41:13;5.33;;;5.33;;
73959;SDS011;62316;48.920;2.342;2024-02-16T04:43:38;6.67;;;6.67;;
73959;SDS011;62316;48.920;2.342;2024-02-16T04:46:04;7.33;;;7.33;;
73959;SDS011;62316;48.920;2.342;2024-02-16T04:48:29;8.00;;;6.67;;
73959;SDS011;62316;48.920;2.342;2024-02-16T04:50:56;5.33;;;5.00;;
73959;SDS011;62316;48.920;2.342;2024-02-16T04:53:21;5.33;;;5.33;;
73959;SDS011;62316;48.920;2.342;2024-02-16T04:55:46;6.00;;;6.00;;
73959;SDS011;62316;48.920;2.342;2024-02-16T04:58:12;4.00;;;4.00;;
73959;SDS011;62316;48.920;2.342;2024-02-16T05:00:38;8.00;;;8.00;;
73959;SDS011;62316;48.920;2.342;2024-02-16T05:03:03;5.67;;;5.67;;
73959;SDS011;62316;48.920;2.342;2024-02-16T05:05:29;4.00;;;4.00;;
73959;SDS011;62316;48.920;2.342;2024-02-16T05:07:55;7.33;;;6.33;;
73959;SDS011;62316;48.920;2.342;2024-02-16T05:10:20;9.67;;;6.33;;
73959;SDS011;62316;48.920;2.342;2024-02-16T05:12:46;7.67;;;7.33;;
73959;SDS011;62316;48.920;2.342;2024-02-16T05:15:11;6.00;;;6.00;;
73959;SDS011;62316;48.920;2.342;2024-02-16T05:17:39;8.33;;;6.00;;
73959;SDS011;62316;48.920;2.342;2024-02-16T05:20:14;7.00;;;6.00;;
73959;SDS011;62316;48.920;2.342;2024-02-16T05:22:44;5.00;;;5.00;;
73959;SDS011;62316;48.920;2.342;2024-02-16T05:25:14;7.67;;;6.00;;
73959;SDS011;62316;48.920;2.342;2024-02-16T05:27:39;6.33;;;5.67;;
73959;SDS011;62316;48.920;2.342;2024-02-16T05:30:05;9.33;;;6.67;;
73959;SDS011;62316;48.920;2.342;2024-02-16T05:32:35;6.33;;;6.33;;
73959;SDS011;62316;48.920;2.342;2024-02-16T05:35:01;7.00;;;7.00;;
73959;SDS011;62316;48.920;2.342;2024-02-16T05:37:30;6.33;;;4.67;;
73959;SDS011;62316;48.920;2.342;2024-02-16T05:39:57;7.33;;;6.00;;
73959;SDS011;62316;48.920;2.342;2024-02-16T05:42:33;6.00;;;6.00;;
73959;SDS011;62316;48.920;2.342;2024-02-16T05:44:58;5.67;;;5.33;;
73959;SDS011;62316;48.920;2.342;2024-02-16T05:47:23;9.00;;;7.00;;
73959;SDS011;62316;48.920;2.342;2024-02-16T05:49:49;8.33;;;7.67;;
73959;SDS011;62316;48.920;2.342;2024-02-16T05:52:14;8.67;;;7.00;;
73959;SDS011;62316;48.920;2.342;2024-02-16T05:54:42;8.67;;;8.00;;
73959;SDS011;62316;48.920;2.342;2024-02-16T05:57:07;10.00;;;9.00;;
73959;SDS011;62316;48.920;2.342;2024-02-16T05:59:34;9.33;;;8.00;;
73959;SDS011;62316;48.920;2.342;2024-02-16T06:01:59;7.33;;;7.00;;
73959;SDS011;62316;48.920;2.342;2024-02-16T06:04:24;7.00;;;7.00;;
73959;SDS011;62316;48.920;2.342;2024-02-16T06:06:49;8.00;;;7.33;;
73959;SDS011;62316;48.920;2.342;2024-02-16T06:09:15;5.67;;;5.67;;
73959;SDS011;62316;48.920;2.342;2024-02-16T06:11:40;6.00;;;6.00;;
73959;SDS011;62316;48.920;2.342;2024-02-16T06:14:05;7.00;;;6.00;;
73959;SDS011;62316;48.920;2.342;2024-02-16T06:16:30;6.00;;;6.00;;
73959;SDS011;62316;48.920;2.342;2024-02-16T06:18:55;9.00;;;8.00;;
73959;SDS011;62316;48.920;2.342;2024-02-16T06:21:21;8.00;;;5.67;;
73959;SDS011;62316;48.920;2.342;2024-02-16T06:23:46;6.67;;;5.33;;
73959;SDS011;62316;48.920;2.342;2024-02-16T06:26:11;7.00;;;6.00;;
73959;SDS011;62316;48.920;2.342;2024-02-16T06:28:36;3.00;;;2.00;;
73959;SDS011;62316;48.920;2.342;2024-02-16T06:31:02;5.67;;;5.67;;
73959;SDS011;62316;48.920;2.342;2024-02-16T06:33:27;6.00;;;6.00;;
73959;SDS011;62316;48.920;2.342;2024-02-16T06:35:52;10.00;;;6.33;;
73959;SDS011;62316;48.920;2.342;2024-02-16T06:38:17;6.00;;;4.00;;
73959;SDS011;62316;48.920;2.342;2024-02-16T06:40:43;10.00;;;8.33;;
73959;SDS011;62316;48.920;2.342;2024-02-16T06:43:08;5.67;;;5.33;;
73959;SDS011;62316;48.920;2.342;2024-02-16T06:45:33;6.67;;;6.67;;
73959;SDS011;62316;48.920;2.342;2024-02-16T06:47:59;7.00;;;7.00;;
73959;SDS011;62316;48.920;2.342;2024-02-16T06:50:25;9.33;;;7.00;;
73959;SDS011;62316;48.920;2.342;2024-02-16T06:52:50;6.00;;;6.00;;
73959;SDS011;62316;48.920;2.342;2024-02-16T06:55:15;11.00;;;7.33;;
73959;SDS011;62316;48.920;2.342;2024-02-16T06:57:41;6.33;;;5.67;;
73959;SDS011;62316;48.920;2.342;2024-02-16T07:00:07;7.33;;;7.33;;
73959;SDS011;62316;48.920;2.342;2024-02-16T07:02:33;6.33;;;5.00;;
73959;SDS011;62316;48.920;2.342;2024-02-16T07:04:59;4.67;;;3.33;;
73959;SDS011;62316;48.920;2.342;2024-02-16T07:07:24;7.33;;;7.00;;
73959;SDS011;62316;48.920;2.342;2024-02-16T07:09:49;7.33;;;7.00;;
73959;SDS011;62316;48.920;2.342;2024-02-16T07:12:14;8.00;;;5.00;;
73959;SDS011;62316;48.920;2.342;2024-02-16T07:14:40;7.00;;;6.00;;
73959;SDS011;62316;48.920;2.342;2024-02-16T07:17:05;6.67;;;6.67;;
73959;SDS011;62316;48.920;2.342;2024-02-16T07:19:34;5.00;;;5.00;;
73959;SDS011;62316;48.920;2.342;2024-02-16T07:21:59;6.00;;;6.00;;
73959;SDS011;62316;48.920;2.342;2024-02-16T07:24:24;4.67;;;4.67;;
73959;SDS011;62316;48.920;2.342;2024-02-16T07:26:52;6.33;;;6.00;;
73959;SDS011;62316;48.920;2.342;2024-02-16T07:29:18;6.00;;;6.00;;
73959;SDS011;62316;48.920;2.342;2024-02-16T07:31:43;5.00;;;5.00;;
73959;SDS011;62316;48.920;2.342;2024-02-16T07:34:09;7.00;;;4.67;;
73959;SDS011;62316;48.920;2.342;2024-02-16T07:36:36;7.00;;;4.67;;
73959;SDS011;62316;48.920;2.342;2024-02-16T07:39:01;6.67;;;5.00;;
73959;SDS011;62316;48.920;2.342;2024-02-16T07:41:29;7.00;;;5.33;;
73959;SDS011;62316;48.920;2.342;2024-02-16T07:43:54;7.00;;;6.00;;
73959;SDS011;62316;48.920;2.342;2024-02-16T07:46:20;6.00;;;4.00;;
73959;SDS011;62316;48.920;2.342;2024-02-16T07:48:45;4.33;;;3.00;;
73959;SDS011;62316;48.920;2.342;2024-02-16T07:51:10;1.67;;;1.67;;
73959;SDS011;62316;48.920;2.342;2024-02-16T07:53:35;4.67;;;2.67;;
73959;SDS011;62316;48.920;2.342;2024-02-16T07:56:01;4.67;;;4.67;;
73959;SDS011;62316;48.920;2.342;2024-02-16T07:58:26;3.33;;;3.00;;
73959;SDS011;62316;48.920;2.342;2024-02-16T08:00:51;3.00;;;3.00;;
73959;SDS011;62316;48.920;2.342;2024-02-16T08:03:17;3.67;;;3.00;;
73959;SDS011;62316;48.920;2.342;2024-02-16T08:05:42;5.00;;;3.67;;
73959;SDS011;62316;48.920;2.342;2024-02-16T08:08:07;7.00;;;3.00;;
73959;SDS011;62316;48.920;2.342;2024-02-16T08:10:33;2.00;;;1.00;;
73959;SDS011;62316;48.920;2.342;2024-02-16T08:13:00;2.33;;;1.00;;
73959;SDS011;62316;48.920;2.342;2024-02-16T08:15:25;2.00;;;2.00;;
73959;SDS011;62316;48.920;2.342;2024-02-16T08:17:51;5.00;;;4.00;;
73959;SDS011;62316;48.920;2.342;2024-02-16T08:20:16;1.67;;;1.33;;
73959;SDS011;62316;48.920;2.342;2024-02-16T08:22:42;2.00;;;2.00;;
73959;SDS011;62316;48.920;2.342;2024-02-16T08:25:09;2.00;;;2.00;;
73959;SDS011;62316;48.920;2.342;2024-02-16T08:27:35;2.00;;;2.00;;
73959;SDS011;62316;48.920;2.342;2024-02-16T08:30:02;2.67;;;1.33;;
73959;SDS011;62316;48.920;2.342;2024-02-16T08:32:28;2.33;;;1.67;;
73959;SDS011;62316;48.920;2.342;2024-02-16T08:34:54;3.00;;;1.33;;
73959;SDS011;62316;48.920;2.342;2024-02-16T08:37:21;1.00;;;1.00;;
73959;SDS011;62316;48.920;2.342;2024-02-16T08:39:46;2.67;;;2.00;;
73959;SDS011;62316;48.920;2.342;2024-02-16T08:42:11;1.00;;;1.00;;
73959;SDS011;62316;48.920;2.342;2024-02-16T08:44:37;3.00;;;2.00;;
73959;SDS011;62316;48.920;2.342;2024-02-16T08:47:04;1.00;;;1.00;;
73959;SDS011;62316;48.920;2.342;2024-02-16T08:49:29;2.00;;;1.00;;
73959;SDS011;62316;48.920;2.342;2024-02-16T08:51:55;1.00;;;1.00;;
73959;SDS011;62316;48.920;2.342;2024-02-16T08:54:20;2.67;;;2.33;;
73959;SDS011;62316;48.920;2.342;2024-02-16T08:56:46;5.67;;;4.33;;
73959;SDS011;62316;48.920;2.342;2024-02-16T08:59:13;4.00;;;4.00;;
73959;SDS011;62316;48.920;2.342;2024-02-16T09:01:38;3.00;;;2.00;;
73959;SDS011;62316;48.920;2.342;2024-02-16T09:04:06;2.33;;;1.33;;
73959;SDS011;62316;48.920;2.342;2024-02-16T09:06:31;1.67;;;1.67;;
73959;SDS011;62316;48.920;2.342;2024-02-16T09:08:56;1.00;;;1.00;;
73959;SDS011;62316;48.920;2.342;2024-02-16T09:11:22;6.67;;;1.67;;
73959;SDS011;62316;48.920;2.342;2024-02-16T09:13:48;2.33;;;1.00;;
73959;SDS011;62316;48.920;2.342;2024-02-16T09:16:13;1.00;;;1.00;;
73959;SDS011;62316;48.920;2.342;2024-02-16T09:18:38;1.33;;;1.33;;
73959;SDS011;62316;48.920;2.342;2024-02-16T09:21:04;1.00;;;1.00;;
73959;SDS011;62316;48.920;2.342;2024-02-16T09:23:29;0.67;;;0.67;;
73959;SDS011;62316;48.920;2.342;2024-02-16T09:26:00;0.00;;;0.00;;
73959;SDS011;62316;48.920;2.342;2024-02-16T09:28:38;5.00;;;3.33;;
73959;SDS011;62316;48.920;2.342;2024-02-16T09:31:06;1.33;;;1.33;;
73959;SDS011;62316;48.920;2.342;2024-02-16T09:33:35;2.67;;;2.67;;
73959;SDS011;62316;48.920;2.342;2024-02-16T09:36:07;4.00;;;3.00;;
73959;SDS011;62316;48.920;2.342;2024-02-16T09:38:33;4.33;;;4.00;;
73959;SDS011;62316;48.920;2.342;2024-02-16T09:40:58;4.67;;;2.00;;
73959;SDS011;62316;48.920;2.342;2024-02-16T09:43:34;1.67;;;1.00;;
73959;SDS011;62316;48.920;2.342;2024-02-16T09:46:00;3.00;;;3.00;;
73959;SDS011;62316;48.920;2.342;2024-02-16T09:48:51;3.00;;;2.00;;
73959;SDS011;62316;48.920;2.342;2024-02-16T09:51:18;2.00;;;1.33;;
73959;SDS011;62316;48.920;2.342;2024-02-16T09:53:45;2.67;;;2.67;;
73959;SDS011;62316;48.920;2.342;2024-02-16T09:56:17;2.00;;;2.00;;
73959;SDS011;62316;48.920;2.342;2024-02-16T09:58:42;1.33;;;1.00;;
73959;SDS011;62316;48.920;2.342;2024-02-16T10:01:16;2.00;;;2.00;;
73959;SDS011;62316;48.920;2.342;2024-02-16T10:03:43;2.00;;;2.00;;
73959;SDS011;62316;48.920;2.342;2024-02-16T10:06:11;2.33;;;2.00;;
73959;SDS011;62316;48.920;2.342;2024-02-16T10:11:17;4.67;;;3.33;;
73959;SDS011;62316;48.920;2.342;2024-02-16T10:16:21;1.33;;;1.33;;
73959;SDS011;62316;48.920;2.342;2024-02-16T10:18:55;3.00;;;3.00;;
73959;SDS011;62316;48.920;2.342;2024-02-16T10:21:27;2.00;;;2.00;;
73959;SDS011;62316;48.920;2.342;2024-02-16T10:24:11;3.00;;;3.00;;
73959;SDS011;62316;48.920;2.342;2024-02-16T10:26:38;6.00;;;2.67;;
73959;SDS011;62316;48.920;2.342;2024-02-16T10:29:05;3.33;;;3.33;;
73959;SDS011;62316;48.920;2.342;2024-02-16T10:31:31;8.33;;;5.33;;
73959;SDS011;62316;48.920;2.342;2024-02-16T10:34:05;7.33;;;6.00;;
73959;SDS011;62316;48.920;2.342;2024-02-16T10:36:34;11.33;;;11.33;;
73959;SDS011;62316;48.920;2.342;2024-02-16T10:39:00;13.33;;;12.00;;
73959;SDS011;62316;48.920;2.342;2024-02-16T10:41:29;12.67;;;12.67;;
73959;SDS011;62316;48.920;2.342;2024-02-16T10:43:55;17.00;;;15.67;;
73959;SDS011;62316;48.920;2.342;2024-02-16T10:46:21;18.00;;;12.75;;
73959;SDS011;62316;48.920;2.342;2024-02-16T10:48:53;19.00;;;17.00;;
73959;SDS011;62316;48.920;2.342;2024-02-16T10:51:23;19.33;;;16.67;;
73959;SDS011;62316;48.920;2.342;2024-02-16T10:53:50;20.33;;;18.67;;
73959;SDS011;62316;48.920;2.342;2024-02-16T10:56:16;23.50;;;22.00;;
73959;SDS011;62316;48.920;2.342;2024-02-16T10:58:52;17.25;;;15.50;;
73959;SDS011;62316;48.920;2.342;2024-02-16T11:01:18;20.25;;;19.25;;
73959;SDS011;62316;48.920;2.342;2024-02-16T11:03:43;19.67;;;17.33;;
73959;SDS011;62316;48.920;2.342;2024-02-16T11:06:14;25.75;;;24.75;;
73959;SDS011;62316;48.920;2.342;2024-02-16T11:08:39;20.25;;;20.00;;
73959;SDS011;62316;48.920;2.342;2024-02-16T11:11:04;35.75;;;28.75;;
73959;SDS011;62316;48.920;2.342;2024-02-16T11:13:33;26.00;;;22.00;;
73959;SDS011;62316;48.920;2.342;2024-02-16T11:16:00;19.67;;;17.67;;
73959;SDS011;62316;48.920;2.342;2024-02-16T11:18:26;24.00;;;23.33;;
73959;SDS011;62316;48.920;2.342;2024-02-16T11:20:51;22.67;;;21.67;;
73959;SDS011;62316;48.920;2.342;2024-02-16T11:23:17;22.25;;;21.00;;
73959;SDS011;62316;48.920;2.342;2024-02-16T11:25:49;20.00;;;19.00;;
73959;SDS011;62316;48.920;2.342;2024-02-16T11:28:16;19.00;;;19.00;;
73959;SDS011;62316;48.920;2.342;2024-02-16T11:30:42;28.25;;;27.00;;
73959;SDS011;62316;48.920;2.342;2024-02-16T11:33:10;22.75;;;20.50;;
73959;SDS011;62316;48.920;2.342;2024-02-16T11:35:35;24.25;;;24.00;;
73959;SDS011;62316;48.920;2.342;2024-02-16T11:38:00;24.25;;;23.25;;
73959;SDS011;62316;48.920;2.342;2024-02-16T11:40:35;18.50;;;18.50;;
73959;SDS011;62316;48.920;2.342;2024-02-16T11:43:10;20.25;;;20.25;;
73959;SDS011;62316;48.920;2.342;2024-02-16T11:45:35;20.33;;;20.33;;
73959;SDS011;62316;48.920;2.342;2024-02-16T11:48:06;24.50;;;23.25;;
73959;SDS011;62316;48.920;2.342;2024-02-16T11:50:32;23.00;;;21.50;;
73959;SDS011;62316;48.920;2.342;2024-02-16T11:52:57;22.00;;;19.50;;
73959;SDS011;62316;48.920;2.342;2024-02-16T11:55:23;20.75;;;19.25;;
73959;SDS011;62316;48.920;2.342;2024-02-16T11:57:48;23.25;;;21.25;;
73959;SDS011;62316;48.920;2.342;2024-02-16T12:00:15;21.00;;;20.25;;
73959;SDS011;62316;48.920;2.342;2024-02-16T12:02:41;22.50;;;19.75;;
73959;SDS011;62316;48.920;2.342;2024-02-16T12:05:06;23.00;;;21.25;;
73959;SDS011;62316;48.920;2.342;2024-02-16T12:07:32;19.75;;;19.50;;
73959;SDS011;62316;48.920;2.342;2024-02-16T12:10:00;16.50;;;16.50;;
73959;SDS011;62316;48.920;2.342;2024-02-16T12:12:25;17.00;;;17.00;;
73959;SDS011;62316;48.920;2.342;2024-02-16T12:14:52;17.25;;;16.00;;
73959;SDS011;62316;48.920;2.342;2024-02-16T12:17:17;14.75;;;13.50;;
73959;SDS011;62316;48.920;2.342;2024-02-16T12:19:46;10.50;;;9.25;;
73959;SDS011;62316;48.920;2.342;2024-02-16T12:22:18;19.50;;;17.50;;
73959;SDS011;62316;48.920;2.342;2024-02-16T12:24:47;17.50;;;16.00;;
73959;SDS011;62316;48.920;2.342;2024-02-16T12:27:13;14.25;;;13.25;;
73959;SDS011;62316;48.920;2.342;2024-02-16T12:29:39;14.33;;;12.67;;
73959;SDS011;62316;48.920;2.342;2024-02-16T12:32:05;10.00;;;9.67;;
73959;SDS011;62316;48.920;2.342;2024-02-16T12:34:30;13.00;;;13.00;;
73959;SDS011;62316;48.920;2.342;2024-02-16T12:36:56;12.67;;;12.67;;
73959;SDS011;62316;48.920;2.342;2024-02-16T12:39:21;14.33;;;14.00;;
73959;SDS011;62316;48.920;2.342;2024-02-16T12:41:46;13.00;;;11.00;;
73959;SDS011;62316;48.920;2.342;2024-02-16T12:44:13;15.33;;;12.00;;
73959;SDS011;62316;48.920;2.342;2024-02-16T12:46:38;16.00;;;13.67;;
73959;SDS011;62316;48.920;2.342;2024-02-16T12:49:04;12.00;;;11.00;;
73959;SDS011;62316;48.920;2.342;2024-02-16T12:51:29;10.67;;;9.67;;
73959;SDS011;62316;48.920;2.342;2024-02-16T12:53:55;6.33;;;6.33;;
73959;SDS011;62316;48.920;2.342;2024-02-16T12:56:20;9.33;;;7.00;;
73959;SDS011;62316;48.920;2.342;2024-02-16T12:58:46;9.67;;;8.67;;
73959;SDS011;62316;48.920;2.342;2024-02-16T13:01:11;12.00;;;8.33;;
73959;SDS011;62316;48.920;2.342;2024-02-16T13:03:37;10.00;;;10.00;;
73959;SDS011;62316;48.920;2.342;2024-02-16T13:06:04;8.00;;;7.00;;
73959;SDS011;62316;48.920;2.342;2024-02-16T13:08:30;9.00;;;8.00;;
73959;SDS011;62316;48.920;2.342;2024-02-16T13:10:56;8.67;;;8.33;;
73959;SDS011;62316;48.920;2.342;2024-02-16T13:13:21;8.33;;;7.00;;
73959;SDS011;62316;48.920;2.342;2024-02-16T13:15:46;7.67;;;7.00;;
73959;SDS011;62316;48.920;2.342;2024-02-16T13:18:15;14.00;;;7.00;;
73959;SDS011;62316;48.920;2.342;2024-02-16T13:20:40;8.00;;;6.00;;
73959;SDS011;62316;48.920;2.342;2024-02-16T13:23:06;4.67;;;4.67;;
73959;SDS011;62316;48.920;2.342;2024-02-16T13:25:31;11.00;;;8.33;;
73959;SDS011;62316;48.920;2.342;2024-02-16T13:27:56;12.00;;;10.33;;
73959;SDS011;62316;48.920;2.342;2024-02-16T13:30:21;10.67;;;10.33;;
73959;SDS011;62316;48.920;2.342;2024-02-16T13:32:47;12.33;;;10.00;;
73959;SDS011;62316;48.920;2.342;2024-02-16T13:35:13;16.67;;;13.67;;
73959;SDS011;62316;48.920;2.342;2024-02-16T13:37:38;8.25;;;8.25;;
73959;SDS011;62316;48.920;2.342;2024-02-16T13:40:06;9.67;;;9.33;;
73959;SDS011;62316;48.920;2.342;2024-02-16T13:42:35;12.00;;;12.00;;
73959;SDS011;62316;48.920;2.342;2024-02-16T13:45:01;6.00;;;6.00;;
73959;SDS011;62316;48.920;2.342;2024-02-16T13:47:26;7.00;;;7.00;;
73959;SDS011;62316;48.920;2.342;2024-02-16T13:49:51;10.00;;;7.33;;
73959;SDS011;62316;48.920;2.342;2024-02-16T13:52:17;9.00;;;7.00;;
73959;SDS011;62316;48.920;2.342;2024-02-16T13:54:42;6.00;;;6.00;;
73959;SDS011;62316;48.920;2.342;2024-02-16T13:57:07;10.00;;;8.33;;
73959;SDS011;62316;48.920;2.342;2024-02-16T13:59:33;6.33;;;6.33;;
73959;SDS011;62316;48.920;2.342;2024-02-16T14:01:59;6.00;;;5.00;;
73959;SDS011;62316;48.920;2.342;2024-02-16T14:04:24;6.33;;;6.33;;
73959;SDS011;62316;48.920;2.342;2024-02-16T14:06:51;5.33;;;5.00;;
73959;SDS011;62316;48.920;2.342;2024-02-16T14:09:16;9.33;;;4.00;;
73959;SDS011;62316;48.920;2.342;2024-02-16T14:11:42;6.67;;;5.00;;
73959;SDS011;62316;48.920;2.342;2024-02-16T14:14:09;1.00;;;1.00;;
73959;SDS011;62316;48.920;2.342;2024-02-16T14:16:35;4.33;;;3.67;;
73959;SDS011;62316;48.920;2.342;2024-02-16T14:19:00;2.00;;;2.00;;
73959;SDS011;62316;48.920;2.342;2024-02-16T14:21:25;9.33;;;6.00;;
73959;SDS011;62316;48.920;2.342;2024-02-16T14:23:50;4.00;;;4.00;;
73959;SDS011;62316;48.920;2.342;2024-02-16T14:29:13;6.67;;;4.33;;
73959;SDS011;62316;48.920;2.342;2024-02-16T14:31:38;6.00;;;3.00;;
73959;SDS011;62316;48.920;2.342;2024-02-16T14:34:04;4.00;;;3.00;;
73959;SDS011;62316;48.920;2.342;2024-02-16T14:36:29;5.33;;;3.00;;
73959;SDS011;62316;48.920;2.342;2024-02-16T14:38:54;4.00;;;2.33;;
73959;SDS011;62316;48.920;2.342;2024-02-16T14:41:20;1.33;;;0.33;;
73959;SDS011;62316;48.920;2.342;2024-02-16T14:43:47;2.00;;;2.00;;
73959;SDS011;62316;48.920;2.342;2024-02-16T14:46:12;13.33;;;13.33;;